Jump to content


AMERICAN AIRLINES FLIGHT AA1004 FLOWN ON 09-09-2017 BY CAPTAIN JIM BOERMAN

Pilot StatsCaptain Jim Boerman (LDP136) • 4,648.3 total hours • 1,417 total flights [View Logbook]
FLIGHT DETAILS
StatusReceived and approved on 2017-09-09 at 16:09:29
Origin AirportDallas-Ft Worth Intl (KDFW) • Dallas-Ft Worth, Texas, United States (607 feet MSL)
Filed Flight PlanKDFW FUZ J21 ACT J25 CWK KAUS
Destination AirportAustin Bergstrom Intl (KAUS) • Austin, Texas, United States (542 feet MSL)
Alternate AirportDallas-Ft Worth Intl (KDFW) • Dallas-Ft Worth, Texas, United States (607 feet MSL)
AirlineAmerican Airlines
AircraftAirbus A320 (320 / A320)
FS Aircraft UsedFeelthere A320 CFM American Airlines
Cruising AltitudeFL360
Distance Flown165 nautical miles
Passengers Onboard83 passengers (55.33% full)
DEPARTURE DETAILS
Time Out14:20:03
Taxi Data133,671 lbs total with 11,164 lbs of fuel onboard
Takeoff Data14:36:26 (16 minutes after leaving gate/ramp) • 132,528 lbs total • 7° pitch at 149 knots
Departure METARKDFW 091753Z VRB03KT 10SM CLR 28/12 A3019 RMK AO2 SLP216 T02830122 10283 20189 58005
ARRIVAL DETAILS
Landing Data15:17:14 • 128,506 lbs total • 2° pitch doing 146 knots at a rate of -353.72 feet/minute with 5,603 lbs of fuel onboard
Time In15:23:19 (6 minutes after landing)
Ramp Weight128,110 lbs total
Total Fuel Used5,561 lbs
Total Block Time01:01:09 (1 hour) while 22 minutes were spent on the ground
Arrival METARKAUS 091953Z 04009KT 360V080 10SM FEW200 29/13 A3009 RMK AO2 SLP182 T02940128 $
MISCELLANEOUS DETAILS
LiveDISPATCH Version4.8.3.1
FS Version
FSUIPC Version4.93
OS VersionWindows 7 32-bit
Screen Resolution1920 x 1080
Pilot's CommentsNo Comments Reported
FLIGHT MAP